sensor_id;sensor_type;location;lat;lon;timestamp;P1;durP1;ratioP1;P2;durP2;ratioP2
34144;SDS011;20422;53.014;8.886;2022-10-26T00:02:16;27.55;;;17.27;;
34144;SDS011;20422;53.014;8.886;2022-10-26T00:04:42;27.38;;;18.17;;
34144;SDS011;20422;53.014;8.886;2022-10-26T00:07:07;34.83;;;18.02;;
34144;SDS011;20422;53.014;8.886;2022-10-26T00:09:32;31.48;;;17.83;;
34144;SDS011;20422;53.014;8.886;2022-10-26T00:11:58;31.55;;;17.85;;
34144;SDS011;20422;53.014;8.886;2022-10-26T00:14:23;33.72;;;18.38;;
34144;SDS011;20422;53.014;8.886;2022-10-26T00:16:50;29.08;;;18.25;;
34144;SDS011;20422;53.014;8.886;2022-10-26T00:19:15;37.63;;;19.50;;
34144;SDS011;20422;53.014;8.886;2022-10-26T00:21:40;34.58;;;18.52;;
34144;SDS011;20422;53.014;8.886;2022-10-26T00:24:06;31.52;;;19.02;;
34144;SDS011;20422;53.014;8.886;2022-10-26T00:26:31;32.78;;;20.38;;
34144;SDS011;20422;53.014;8.886;2022-10-26T00:28:56;33.35;;;21.23;;
34144;SDS011;20422;53.014;8.886;2022-10-26T00:31:22;36.03;;;20.60;;
34144;SDS011;20422;53.014;8.886;2022-10-26T00:33:52;46.33;;;22.17;;
34144;SDS011;20422;53.014;8.886;2022-10-26T00:36:18;37.13;;;21.08;;
34144;SDS011;20422;53.014;8.886;2022-10-26T00:38:54;35.55;;;19.77;;
34144;SDS011;20422;53.014;8.886;2022-10-26T00:41:21;37.65;;;18.92;;
34144;SDS011;20422;53.014;8.886;2022-10-26T00:43:52;32.92;;;20.50;;
34144;SDS011;20422;53.014;8.886;2022-10-26T00:46:19;34.45;;;19.45;;
34144;SDS011;20422;53.014;8.886;2022-10-26T00:48:50;34.45;;;19.02;;
34144;SDS011;20422;53.014;8.886;2022-10-26T00:51:29;35.33;;;18.80;;
34144;SDS011;20422;53.014;8.886;2022-10-26T00:54:03;38.53;;;20.60;;
34144;SDS011;20422;53.014;8.886;2022-10-26T00:56:31;42.63;;;21.10;;
34144;SDS011;20422;53.014;8.886;2022-10-26T00:58:59;57.28;;;21.42;;
34144;SDS011;20422;53.014;8.886;2022-10-26T01:01:28;55.35;;;21.27;;
34144;SDS011;20422;53.014;8.886;2022-10-26T01:03:55;75.88;;;22.60;;
34144;SDS011;20422;53.014;8.886;2022-10-26T01:06:22;53.15;;;21.00;;
34144;SDS011;20422;53.014;8.886;2022-10-26T01:08:47;55.75;;;21.55;;
34144;SDS011;20422;53.014;8.886;2022-10-26T01:11:13;41.33;;;22.55;;
34144;SDS011;20422;53.014;8.886;2022-10-26T01:13:40;38.67;;;22.05;;
34144;SDS011;20422;53.014;8.886;2022-10-26T01:16:12;43.72;;;21.55;;
34144;SDS011;20422;53.014;8.886;2022-10-26T01:24:26;37.28;;;21.25;;
34144;SDS011;20422;53.014;8.886;2022-10-26T01:27:18;39.50;;;20.92;;
34144;SDS011;20422;53.014;8.886;2022-10-26T01:35:17;37.85;;;20.23;;
34144;SDS011;20422;53.014;8.886;2022-10-26T01:37:53;43.28;;;21.83;;
34144;SDS011;20422;53.014;8.886;2022-10-26T01:43:13;33.63;;;20.55;;
34144;SDS011;20422;53.014;8.886;2022-10-26T01:45:41;38.85;;;22.10;;
34144;SDS011;20422;53.014;8.886;2022-10-26T01:48:11;42.88;;;21.65;;
34144;SDS011;20422;53.014;8.886;2022-10-26T01:50:39;38.53;;;21.13;;
34144;SDS011;20422;53.014;8.886;2022-10-26T01:53:10;41.28;;;22.38;;
34144;SDS011;20422;53.014;8.886;2022-10-26T01:58:06;37.23;;;21.57;;
34144;SDS011;20422;53.014;8.886;2022-10-26T02:01:07;36.70;;;21.27;;
34144;SDS011;20422;53.014;8.886;2022-10-26T02:03:39;46.35;;;23.23;;
34144;SDS011;20422;53.014;8.886;2022-10-26T02:06:37;38.75;;;22.42;;
34144;SDS011;20422;53.014;8.886;2022-10-26T02:09:19;36.78;;;21.75;;
34144;SDS011;20422;53.014;8.886;2022-10-26T02:11:55;36.67;;;21.63;;
34144;SDS011;20422;53.014;8.886;2022-10-26T02:16:54;42.22;;;20.35;;
34144;SDS011;20422;53.014;8.886;2022-10-26T02:22:18;54.00;;;22.45;;
34144;SDS011;20422;53.014;8.886;2022-10-26T02:24:51;43.88;;;21.90;;
34144;SDS011;20422;53.014;8.886;2022-10-26T02:27:19;44.13;;;21.95;;
34144;SDS011;20422;53.014;8.886;2022-10-26T02:29:48;63.30;;;21.13;;
34144;SDS011;20422;53.014;8.886;2022-10-26T02:32:16;53.17;;;19.60;;
34144;SDS011;20422;53.014;8.886;2022-10-26T02:34:44;55.67;;;19.52;;
34144;SDS011;20422;53.014;8.886;2022-10-26T02:37:12;82.03;;;21.00;;
34144;SDS011;20422;53.014;8.886;2022-10-26T02:39:40;223.13;;;28.03;;
34144;SDS011;20422;53.014;8.886;2022-10-26T02:42:07;149.43;;;25.13;;
34144;SDS011;20422;53.014;8.886;2022-10-26T02:44:40;194.18;;;25.70;;
34144;SDS011;20422;53.014;8.886;2022-10-26T02:47:10;262.85;;;31.40;;
34144;SDS011;20422;53.014;8.886;2022-10-26T02:49:36;246.13;;;31.88;;
34144;SDS011;20422;53.014;8.886;2022-10-26T02:52:07;219.25;;;29.98;;
34144;SDS011;20422;53.014;8.886;2022-10-26T02:57:15;145.68;;;28.77;;
34144;SDS011;20422;53.014;8.886;2022-10-26T02:59:45;69.70;;;24.58;;
34144;SDS011;20422;53.014;8.886;2022-10-26T03:02:12;82.90;;;26.55;;
34144;SDS011;20422;53.014;8.886;2022-10-26T03:04:40;69.30;;;26.70;;
34144;SDS011;20422;53.014;8.886;2022-10-26T03:07:06;59.55;;;24.45;;
34144;SDS011;20422;53.014;8.886;2022-10-26T03:09:31;87.70;;;25.17;;
34144;SDS011;20422;53.014;8.886;2022-10-26T03:11:56;92.28;;;27.52;;
34144;SDS011;20422;53.014;8.886;2022-10-26T03:14:22;104.80;;;28.95;;
34144;SDS011;20422;53.014;8.886;2022-10-26T03:16:47;67.15;;;28.08;;
34144;SDS011;20422;53.014;8.886;2022-10-26T03:19:12;73.53;;;28.15;;
34144;SDS011;20422;53.014;8.886;2022-10-26T03:21:38;52.92;;;26.15;;
34144;SDS011;20422;53.014;8.886;2022-10-26T03:24:03;71.43;;;27.90;;
34144;SDS011;20422;53.014;8.886;2022-10-26T03:26:29;57.15;;;28.23;;
34144;SDS011;20422;53.014;8.886;2022-10-26T03:28:54;54.83;;;27.27;;
34144;SDS011;20422;53.014;8.886;2022-10-26T03:31:19;52.83;;;25.90;;
34144;SDS011;20422;53.014;8.886;2022-10-26T03:33:45;52.25;;;26.45;;
34144;SDS011;20422;53.014;8.886;2022-10-26T03:36:10;50.83;;;27.27;;
34144;SDS011;20422;53.014;8.886;2022-10-26T03:38:35;52.60;;;25.60;;
34144;SDS011;20422;53.014;8.886;2022-10-26T03:41:01;45.05;;;24.40;;
34144;SDS011;20422;53.014;8.886;2022-10-26T03:43:26;45.63;;;24.90;;
34144;SDS011;20422;53.014;8.886;2022-10-26T03:45:52;51.55;;;24.08;;
34144;SDS011;20422;53.014;8.886;2022-10-26T03:48:17;51.00;;;24.23;;
34144;SDS011;20422;53.014;8.886;2022-10-26T03:50:43;54.25;;;26.00;;
34144;SDS011;20422;53.014;8.886;2022-10-26T03:53:08;55.00;;;25.75;;
34144;SDS011;20422;53.014;8.886;2022-10-26T03:55:33;49.65;;;25.45;;
34144;SDS011;20422;53.014;8.886;2022-10-26T03:57:59;52.38;;;25.17;;
34144;SDS011;20422;53.014;8.886;2022-10-26T04:00:24;62.33;;;27.90;;
34144;SDS011;20422;53.014;8.886;2022-10-26T04:02:54;48.42;;;24.63;;
34144;SDS011;20422;53.014;8.886;2022-10-26T04:05:21;45.75;;;24.38;;
34144;SDS011;20422;53.014;8.886;2022-10-26T04:07:54;50.78;;;25.02;;
34144;SDS011;20422;53.014;8.886;2022-10-26T04:10:21;52.17;;;27.02;;
34144;SDS011;20422;53.014;8.886;2022-10-26T04:12:47;49.10;;;24.40;;
34144;SDS011;20422;53.014;8.886;2022-10-26T04:15:13;50.25;;;24.88;;
34144;SDS011;20422;53.014;8.886;2022-10-26T04:17:40;52.38;;;26.52;;
34144;SDS011;20422;53.014;8.886;2022-10-26T04:20:06;52.97;;;25.77;;
34144;SDS011;20422;53.014;8.886;2022-10-26T04:22:32;47.53;;;24.35;;
34144;SDS011;20422;53.014;8.886;2022-10-26T04:24:58;50.30;;;24.92;;
34144;SDS011;20422;53.014;8.886;2022-10-26T04:27:23;46.30;;;23.55;;
34144;SDS011;20422;53.014;8.886;2022-10-26T04:29:48;51.13;;;24.95;;
34144;SDS011;20422;53.014;8.886;2022-10-26T04:32:14;48.90;;;24.33;;
34144;SDS011;20422;53.014;8.886;2022-10-26T04:34:39;52.20;;;25.67;;
34144;SDS011;20422;53.014;8.886;2022-10-26T04:37:04;48.20;;;24.90;;
34144;SDS011;20422;53.014;8.886;2022-10-26T04:39:30;53.67;;;25.35;;
34144;SDS011;20422;53.014;8.886;2022-10-26T04:41:55;46.10;;;23.73;;
34144;SDS011;20422;53.014;8.886;2022-10-26T04:44:20;52.13;;;25.48;;
34144;SDS011;20422;53.014;8.886;2022-10-26T04:46:46;46.72;;;24.63;;
34144;SDS011;20422;53.014;8.886;2022-10-26T04:49:11;52.22;;;25.98;;
34144;SDS011;20422;53.014;8.886;2022-10-26T04:51:36;46.95;;;24.38;;
34144;SDS011;20422;53.014;8.886;2022-10-26T04:54:02;54.42;;;25.92;;
34144;SDS011;20422;53.014;8.886;2022-10-26T04:56:27;50.65;;;25.02;;
34144;SDS011;20422;53.014;8.886;2022-10-26T04:58:53;45.92;;;24.15;;
34144;SDS011;20422;53.014;8.886;2022-10-26T05:01:19;42.95;;;22.95;;
34144;SDS011;20422;53.014;8.886;2022-10-26T05:03:47;51.05;;;24.35;;
34144;SDS011;20422;53.014;8.886;2022-10-26T05:06:14;56.08;;;25.13;;
34144;SDS011;20422;53.014;8.886;2022-10-26T05:08:39;50.38;;;24.48;;
34144;SDS011;20422;53.014;8.886;2022-10-26T05:11:05;49.40;;;25.83;;
34144;SDS011;20422;53.014;8.886;2022-10-26T05:13:30;50.67;;;24.48;;
34144;SDS011;20422;53.014;8.886;2022-10-26T05:15:55;51.63;;;24.08;;
34144;SDS011;20422;53.014;8.886;2022-10-26T05:18:20;49.20;;;24.30;;
34144;SDS011;20422;53.014;8.886;2022-10-26T05:20:46;47.90;;;24.45;;
34144;SDS011;20422;53.014;8.886;2022-10-26T05:23:14;56.42;;;25.00;;
34144;SDS011;20422;53.014;8.886;2022-10-26T05:25:42;49.75;;;25.67;;
34144;SDS011;20422;53.014;8.886;2022-10-26T05:28:08;43.40;;;23.10;;
34144;SDS011;20422;53.014;8.886;2022-10-26T05:30:38;46.28;;;23.50;;
34144;SDS011;20422;53.014;8.886;2022-10-26T05:33:05;50.45;;;24.00;;
34144;SDS011;20422;53.014;8.886;2022-10-26T05:35:31;48.42;;;23.92;;
34144;SDS011;20422;53.014;8.886;2022-10-26T05:37:57;48.20;;;24.08;;
34144;SDS011;20422;53.014;8.886;2022-10-26T05:40:23;48.33;;;22.98;;
34144;SDS011;20422;53.014;8.886;2022-10-26T05:42:49;46.22;;;23.35;;
34144;SDS011;20422;53.014;8.886;2022-10-26T05:45:17;51.28;;;21.60;;
34144;SDS011;20422;53.014;8.886;2022-10-26T05:47:43;51.30;;;23.92;;
34144;SDS011;20422;53.014;8.886;2022-10-26T05:50:09;56.42;;;24.13;;
34144;SDS011;20422;53.014;8.886;2022-10-26T05:52:39;51.08;;;23.73;;
34144;SDS011;20422;53.014;8.886;2022-10-26T05:55:09;53.58;;;23.23;;
34144;SDS011;20422;53.014;8.886;2022-10-26T05:57:37;53.05;;;23.27;;
34144;SDS011;20422;53.014;8.886;2022-10-26T06:00:06;51.17;;;23.38;;
34144;SDS011;20422;53.014;8.886;2022-10-26T06:05:55;42.70;;;21.83;;
34144;SDS011;20422;53.014;8.886;2022-10-26T06:08:23;42.90;;;21.80;;
34144;SDS011;20422;53.014;8.886;2022-10-26T06:10:51;40.75;;;21.73;;
34144;SDS011;20422;53.014;8.886;2022-10-26T06:13:18;44.50;;;22.05;;
34144;SDS011;20422;53.014;8.886;2022-10-26T06:15:50;41.75;;;20.90;;
34144;SDS011;20422;53.014;8.886;2022-10-26T06:23:54;33.78;;;18.98;;
34144;SDS011;20422;53.014;8.886;2022-10-26T06:32:45;33.20;;;18.20;;
34144;SDS011;20422;53.014;8.886;2022-10-26T06:35:18;29.83;;;16.98;;
34144;SDS011;20422;53.014;8.886;2022-10-26T06:37:51;33.08;;;18.15;;
34144;SDS011;20422;53.014;8.886;2022-10-26T06:40:18;37.13;;;18.08;;
34144;SDS011;20422;53.014;8.886;2022-10-26T06:42:44;32.65;;;17.70;;
34144;SDS011;20422;53.014;8.886;2022-10-26T06:45:10;43.97;;;19.50;;
34144;SDS011;20422;53.014;8.886;2022-10-26T06:55:56;32.65;;;17.15;;
34144;SDS011;20422;53.014;8.886;2022-10-26T06:58:24;30.27;;;18.05;;
34144;SDS011;20422;53.014;8.886;2022-10-26T07:03:19;41.65;;;17.40;;
34144;SDS011;20422;53.014;8.886;2022-10-26T07:05:44;29.13;;;17.17;;
34144;SDS011;20422;53.014;8.886;2022-10-26T07:08:10;34.95;;;16.85;;
34144;SDS011;20422;53.014;8.886;2022-10-26T07:10:36;35.47;;;17.05;;
34144;SDS011;20422;53.014;8.886;2022-10-26T07:13:06;31.95;;;17.00;;
34144;SDS011;20422;53.014;8.886;2022-10-26T07:17:58;34.10;;;15.48;;
34144;SDS011;20422;53.014;8.886;2022-10-26T07:20:24;37.08;;;15.90;;
34144;SDS011;20422;53.014;8.886;2022-10-26T07:22:53;30.92;;;15.82;;
34144;SDS011;20422;53.014;8.886;2022-10-26T07:25:19;27.10;;;16.27;;
34144;SDS011;20422;53.014;8.886;2022-10-26T07:27:45;28.55;;;17.75;;
34144;SDS011;20422;53.014;8.886;2022-10-26T07:30:11;23.95;;;15.80;;
34144;SDS011;20422;53.014;8.886;2022-10-26T07:32:36;35.40;;;17.25;;
34144;SDS011;20422;53.014;8.886;2022-10-26T07:35:02;31.88;;;16.90;;
34144;SDS011;20422;53.014;8.886;2022-10-26T07:37:27;29.05;;;16.35;;
34144;SDS011;20422;53.014;8.886;2022-10-26T07:39:53;23.75;;;13.85;;
34144;SDS011;20422;53.014;8.886;2022-10-26T07:42:18;26.77;;;15.40;;
34144;SDS011;20422;53.014;8.886;2022-10-26T07:44:43;22.42;;;14.93;;
34144;SDS011;20422;53.014;8.886;2022-10-26T07:47:09;30.88;;;16.92;;
34144;SDS011;20422;53.014;8.886;2022-10-26T07:49:34;25.65;;;15.75;;
34144;SDS011;20422;53.014;8.886;2022-10-26T07:52:00;23.58;;;14.38;;
34144;SDS011;20422;53.014;8.886;2022-10-26T07:54:25;23.58;;;14.75;;
34144;SDS011;20422;53.014;8.886;2022-10-26T07:56:51;29.60;;;14.98;;
34144;SDS011;20422;53.014;8.886;2022-10-26T07:59:16;36.55;;;16.70;;
34144;SDS011;20422;53.014;8.886;2022-10-26T08:01:42;27.83;;;15.13;;
34144;SDS011;20422;53.014;8.886;2022-10-26T08:04:08;30.17;;;15.02;;
34144;SDS011;20422;53.014;8.886;2022-10-26T08:06:33;29.15;;;13.95;;
34144;SDS011;20422;53.014;8.886;2022-10-26T08:08:59;34.17;;;15.57;;
34144;SDS011;20422;53.014;8.886;2022-10-26T08:11:24;22.98;;;14.00;;
34144;SDS011;20422;53.014;8.886;2022-10-26T08:13:53;29.42;;;15.52;;
34144;SDS011;20422;53.014;8.886;2022-10-26T08:16:19;23.95;;;14.80;;
34144;SDS011;20422;53.014;8.886;2022-10-26T08:18:54;25.48;;;14.63;;
34144;SDS011;20422;53.014;8.886;2022-10-26T08:21:19;25.77;;;15.20;;
34144;SDS011;20422;53.014;8.886;2022-10-26T08:23:45;24.33;;;14.63;;
34144;SDS011;20422;53.014;8.886;2022-10-26T08:26:10;29.77;;;14.77;;
34144;SDS011;20422;53.014;8.886;2022-10-26T08:28:36;29.55;;;15.00;;
34144;SDS011;20422;53.014;8.886;2022-10-26T08:31:02;26.92;;;14.45;;
34144;SDS011;20422;53.014;8.886;2022-10-26T08:33:27;26.48;;;14.73;;
34144;SDS011;20422;53.014;8.886;2022-10-26T08:35:54;23.08;;;13.90;;
34144;SDS011;20422;53.014;8.886;2022-10-26T08:40:48;27.45;;;14.88;;
34144;SDS011;20422;53.014;8.886;2022-10-26T08:46:15;26.15;;;14.25;;
34144;SDS011;20422;53.014;8.886;2022-10-26T08:48:54;26.73;;;12.38;;
34144;SDS011;20422;53.014;8.886;2022-10-26T08:51:25;25.55;;;13.60;;
34144;SDS011;20422;53.014;8.886;2022-10-26T08:54:00;25.73;;;14.30;;
34144;SDS011;20422;53.014;8.886;2022-10-26T08:56:39;22.80;;;12.40;;
34144;SDS011;20422;53.014;8.886;2022-10-26T09:01:50;25.55;;;13.38;;
34144;SDS011;20422;53.014;8.886;2022-10-26T09:04:16;24.20;;;12.13;;
34144;SDS011;20422;53.014;8.886;2022-10-26T09:15:07;17.17;;;11.38;;
34144;SDS011;20422;53.014;8.886;2022-10-26T09:20:42;23.48;;;12.35;;
34144;SDS011;20422;53.014;8.886;2022-10-26T09:25:57;18.65;;;10.65;;
34144;SDS011;20422;53.014;8.886;2022-10-26T09:28:24;22.45;;;11.82;;
34144;SDS011;20422;53.014;8.886;2022-10-26T09:30:52;17.48;;;10.02;;
34144;SDS011;20422;53.014;8.886;2022-10-26T09:33:20;16.55;;;10.18;;
34144;SDS011;20422;53.014;8.886;2022-10-26T09:35:49;16.40;;;10.15;;
34144;SDS011;20422;53.014;8.886;2022-10-26T09:43:27;16.38;;;10.70;;
34144;SDS011;20422;53.014;8.886;2022-10-26T09:45:57;17.30;;;9.15;;
34144;SDS011;20422;53.014;8.886;2022-10-26T09:48:38;14.30;;;9.48;;
34144;SDS011;20422;53.014;8.886;2022-10-26T09:51:10;20.88;;;10.50;;
34144;SDS011;20422;53.014;8.886;2022-10-26T09:53:35;15.52;;;9.43;;
34144;SDS011;20422;53.014;8.886;2022-10-26T09:56:03;13.60;;;8.98;;
34144;SDS011;20422;53.014;8.886;2022-10-26T09:59:18;17.35;;;9.15;;
34144;SDS011;20422;53.014;8.886;2022-10-26T10:01:32;13.07;;;8.32;;
34144;SDS011;20422;53.014;8.886;2022-10-26T10:06:36;13.75;;;7.93;;
34144;SDS011;20422;53.014;8.886;2022-10-26T10:09:06;18.80;;;8.98;;
34144;SDS011;20422;53.014;8.886;2022-10-26T10:12:18;15.60;;;8.05;;
34144;SDS011;20422;53.014;8.886;2022-10-26T10:14:59;11.00;;;8.27;;
34144;SDS011;20422;53.014;8.886;2022-10-26T10:17:22;10.40;;;7.85;;
34144;SDS011;20422;53.014;8.886;2022-10-26T10:19:48;10.90;;;7.47;;
34144;SDS011;20422;53.014;8.886;2022-10-26T10:24:42;14.32;;;8.85;;
34144;SDS011;20422;53.014;8.886;2022-10-26T10:27:23;13.65;;;7.47;;
34144;SDS011;20422;53.014;8.886;2022-10-26T10:29:50;15.35;;;8.05;;
34144;SDS011;20422;53.014;8.886;2022-10-26T10:32:20;12.65;;;7.65;;
34144;SDS011;20422;53.014;8.886;2022-10-26T10:34:51;11.77;;;7.30;;
34144;SDS011;20422;53.014;8.886;2022-10-26T10:37:28;12.82;;;7.63;;
34144;SDS011;20422;53.014;8.886;2022-10-26T10:39:58;14.23;;;8.23;;
34144;SDS011;20422;53.014;8.886;2022-10-26T10:42:26;17.05;;;8.82;;
34144;SDS011;20422;53.014;8.886;2022-10-26T10:44:58;17.05;;;8.20;;
34144;SDS011;20422;53.014;8.886;2022-10-26T10:47:28;14.02;;;8.10;;
34144;SDS011;20422;53.014;8.886;2022-10-26T10:49:57;10.35;;;7.78;;
34144;SDS011;20422;53.014;8.886;2022-10-26T10:52:28;14.73;;;8.25;;
34144;SDS011;20422;53.014;8.886;2022-10-26T10:55:37;25.08;;;7.88;;
34144;SDS011;20422;53.014;8.886;2022-10-26T11:00:38;11.57;;;7.15;;
34144;SDS011;20422;53.014;8.886;2022-10-26T11:03:31;12.02;;;8.00;;
34144;SDS011;20422;53.014;8.886;2022-10-26T11:11:27;14.73;;;8.40;;
34144;SDS011;20422;53.014;8.886;2022-10-26T11:14:00;15.70;;;7.28;;
34144;SDS011;20422;53.014;8.886;2022-10-26T11:16:32;9.63;;;7.20;;
34144;SDS011;20422;53.014;8.886;2022-10-26T11:21:37;11.82;;;7.43;;
34144;SDS011;20422;53.014;8.886;2022-10-26T11:24:04;16.17;;;7.47;;
34144;SDS011;20422;53.014;8.886;2022-10-26T11:35:11;22.90;;;8.98;;
34144;SDS011;20422;53.014;8.886;2022-10-26T11:38:00;11.02;;;7.40;;
34144;SDS011;20422;53.014;8.886;2022-10-26T11:40:34;15.15;;;8.65;;
34144;SDS011;20422;53.014;8.886;2022-10-26T11:43:15;18.33;;;7.82;;
34144;SDS011;20422;53.014;8.886;2022-10-26T11:46:10;12.02;;;7.22;;
34144;SDS011;20422;53.014;8.886;2022-10-26T11:48:50;13.43;;;7.03;;
34144;SDS011;20422;53.014;8.886;2022-10-26T11:51:43;15.13;;;7.20;;
34144;SDS011;20422;53.014;8.886;2022-10-26T11:54:17;20.50;;;7.15;;
34144;SDS011;20422;53.014;8.886;2022-10-26T11:56:48;17.80;;;8.15;;
34144;SDS011;20422;53.014;8.886;2022-10-26T11:59:18;11.63;;;6.18;;
34144;SDS011;20422;53.014;8.886;2022-10-26T12:01:51;10.43;;;5.78;;
34144;SDS011;20422;53.014;8.886;2022-10-26T12:04:22;17.27;;;7.00;;
34144;SDS011;20422;53.014;8.886;2022-10-26T12:06:53;10.60;;;6.22;;
34144;SDS011;20422;53.014;8.886;2022-10-26T12:11:56;7.70;;;5.15;;
34144;SDS011;20422;53.014;8.886;2022-10-26T12:14:55;13.32;;;6.25;;
34144;SDS011;20422;53.014;8.886;2022-10-26T12:17:38;8.35;;;4.85;;
34144;SDS011;20422;53.014;8.886;2022-10-26T12:23:17;9.10;;;5.03;;
34144;SDS011;20422;53.014;8.886;2022-10-26T12:25:43;8.70;;;4.30;;
34144;SDS011;20422;53.014;8.886;2022-10-26T12:34:04;8.75;;;4.10;;
34144;SDS011;20422;53.014;8.886;2022-10-26T12:39:36;12.43;;;5.28;;
34144;SDS011;20422;53.014;8.886;2022-10-26T12:44:37;8.43;;;4.90;;
34144;SDS011;20422;53.014;8.886;2022-10-26T12:47:04;9.95;;;5.03;;
34144;SDS011;20422;53.014;8.886;2022-10-26T12:57:35;8.68;;;4.57;;
34144;SDS011;20422;53.014;8.886;2022-10-26T13:00:16;11.88;;;5.18;;
34144;SDS011;20422;53.014;8.886;2022-10-26T13:08:50;15.10;;;5.75;;
34144;SDS011;20422;53.014;8.886;2022-10-26T13:11:31;9.75;;;7.35;;
34144;SDS011;20422;53.014;8.886;2022-10-26T13:14:00;8.52;;;4.55;;
34144;SDS011;20422;53.014;8.886;2022-10-26T13:16:28;19.85;;;6.65;;
34144;SDS011;20422;53.014;8.886;2022-10-26T13:18:54;8.15;;;5.13;;
34144;SDS011;20422;53.014;8.886;2022-10-26T13:21:23;12.43;;;4.72;;
34144;SDS011;20422;53.014;8.886;2022-10-26T13:26:23;9.05;;;4.93;;
34144;SDS011;20422;53.014;8.886;2022-10-26T13:28:50;10.63;;;4.30;;
34144;SDS011;20422;53.014;8.886;2022-10-26T13:34:31;13.02;;;4.90;;
34144;SDS011;20422;53.014;8.886;2022-10-26T13:39:37;11.25;;;4.65;;
34144;SDS011;20422;53.014;8.886;2022-10-26T13:42:06;6.22;;;3.83;;
34144;SDS011;20422;53.014;8.886;2022-10-26T13:44:38;13.15;;;4.50;;
34144;SDS011;20422;53.014;8.886;2022-10-26T13:47:37;13.23;;;4.97;;
34144;SDS011;20422;53.014;8.886;2022-10-26T13:50:13;6.93;;;3.85;;
34144;SDS011;20422;53.014;8.886;2022-10-26T13:53:05;12.48;;;4.53;;
34144;SDS011;20422;53.014;8.886;2022-10-26T13:55:36;8.40;;;4.28;;
34144;SDS011;20422;53.014;8.886;2022-10-26T13:58:22;8.55;;;3.92;;
34144;SDS011;20422;53.014;8.886;2022-10-26T14:03:40;5.78;;;3.92;;
34144;SDS011;20422;53.014;8.886;2022-10-26T14:06:10;10.77;;;4.18;;
34144;SDS011;20422;53.014;8.886;2022-10-26T14:08:41;11.77;;;4.18;;
34144;SDS011;20422;53.014;8.886;2022-10-26T14:11:11;9.55;;;4.10;;
34144;SDS011;20422;53.014;8.886;2022-10-26T14:13:39;7.18;;;3.97;;
34144;SDS011;20422;53.014;8.886;2022-10-26T14:16:08;8.80;;;3.88;;
34144;SDS011;20422;53.014;8.886;2022-10-26T14:18:35;9.57;;;3.83;;
34144;SDS011;20422;53.014;8.886;2022-10-26T14:21:04;7.10;;;3.60;;
34144;SDS011;20422;53.014;8.886;2022-10-26T14:23:44;7.15;;;4.63;;
34144;SDS011;20422;53.014;8.886;2022-10-26T14:28:52;6.95;;;3.70;;
34144;SDS011;20422;53.014;8.886;2022-10-26T14:31:28;5.32;;;3.17;;
34144;SDS011;20422;53.014;8.886;2022-10-26T14:33:57;5.38;;;3.42;;
34144;SDS011;20422;53.014;8.886;2022-10-26T14:39:08;11.38;;;3.58;;
34144;SDS011;20422;53.014;8.886;2022-10-26T14:41:45;6.88;;;2.80;;
34144;SDS011;20422;53.014;8.886;2022-10-26T14:44:14;9.32;;;3.72;;
34144;SDS011;20422;53.014;8.886;2022-10-26T14:46:43;13.30;;;3.20;;
34144;SDS011;20422;53.014;8.886;2022-10-26T14:49:19;6.70;;;3.05;;
34144;SDS011;20422;53.014;8.886;2022-10-26T14:51:47;7.60;;;3.35;;
34144;SDS011;20422;53.014;8.886;2022-10-26T14:54:20;7.68;;;3.88;;
34144;SDS011;20422;53.014;8.886;2022-10-26T14:56:48;7.93;;;4.03;;
34144;SDS011;20422;53.014;8.886;2022-10-26T14:59:24;10.73;;;3.40;;
34144;SDS011;20422;53.014;8.886;2022-10-26T15:01:58;11.05;;;4.22;;
34144;SDS011;20422;53.014;8.886;2022-10-26T15:04:38;10.15;;;3.78;;
34144;SDS011;20422;53.014;8.886;2022-10-26T15:07:07;8.95;;;3.60;;
34144;SDS011;20422;53.014;8.886;2022-10-26T15:09:43;12.02;;;4.28;;
34144;SDS011;20422;53.014;8.886;2022-10-26T15:14:43;8.05;;;3.15;;
34144;SDS011;20422;53.014;8.886;2022-10-26T15:17:16;8.77;;;3.30;;
34144;SDS011;20422;53.014;8.886;2022-10-26T15:19:48;8.77;;;3.73;;
34144;SDS011;20422;53.014;8.886;2022-10-26T15:22:20;8.00;;;3.22;;
34144;SDS011;20422;53.014;8.886;2022-10-26T15:24:49;4.40;;;3.25;;
34144;SDS011;20422;53.014;8.886;2022-10-26T15:27:17;6.72;;;4.30;;
34144;SDS011;20422;53.014;8.886;2022-10-26T15:29:43;9.82;;;3.70;;
34144;SDS011;20422;53.014;8.886;2022-10-26T15:32:20;10.60;;;3.22;;
34144;SDS011;20422;53.014;8.886;2022-10-26T15:37:35;6.53;;;3.40;;
34144;SDS011;20422;53.014;8.886;2022-10-26T15:40:04;10.00;;;4.00;;
34144;SDS011;20422;53.014;8.886;2022-10-26T15:42:30;10.20;;;4.70;;
34144;SDS011;20422;53.014;8.886;2022-10-26T15:44:55;9.10;;;4.28;;
34144;SDS011;20422;53.014;8.886;2022-10-26T15:47:32;11.13;;;5.25;;
34144;SDS011;20422;53.014;8.886;2022-10-26T15:49:58;7.70;;;4.07;;
34144;SDS011;20422;53.014;8.886;2022-10-26T15:52:23;11.60;;;3.58;;
34144;SDS011;20422;53.014;8.886;2022-10-26T15:54:49;9.85;;;4.47;;
34144;SDS011;20422;53.014;8.886;2022-10-26T15:57:14;15.57;;;4.55;;
34144;SDS011;20422;53.014;8.886;2022-10-26T15:59:40;14.02;;;5.20;;
34144;SDS011;20422;53.014;8.886;2022-10-26T16:02:15;9.32;;;4.65;;
34144;SDS011;20422;53.014;8.886;2022-10-26T16:04:40;9.80;;;4.57;;
34144;SDS011;20422;53.014;8.886;2022-10-26T16:07:12;11.95;;;4.35;;
34144;SDS011;20422;53.014;8.886;2022-10-26T16:09:39;9.40;;;4.85;;
34144;SDS011;20422;53.014;8.886;2022-10-26T16:12:09;7.85;;;4.30;;
34144;SDS011;20422;53.014;8.886;2022-10-26T16:14:36;11.00;;;4.07;;
34144;SDS011;20422;53.014;8.886;2022-10-26T16:17:02;8.48;;;4.70;;
34144;SDS011;20422;53.014;8.886;2022-10-26T16:19:28;9.30;;;4.40;;
34144;SDS011;20422;53.014;8.886;2022-10-26T16:21:54;11.50;;;4.50;;
34144;SDS011;20422;53.014;8.886;2022-10-26T16:24:19;9.30;;;4.68;;
34144;SDS011;20422;53.014;8.886;2022-10-26T16:26:45;9.57;;;5.00;;
34144;SDS011;20422;53.014;8.886;2022-10-26T16:29:10;8.13;;;4.38;;
34144;SDS011;20422;53.014;8.886;2022-10-26T16:31:35;21.23;;;10.95;;
34144;SDS011;20422;53.014;8.886;2022-10-26T16:34:01;15.65;;;7.35;;
34144;SDS011;20422;53.014;8.886;2022-10-26T16:36:26;12.85;;;7.88;;
34144;SDS011;20422;53.014;8.886;2022-10-26T16:38:52;13.32;;;7.97;;
34144;SDS011;20422;53.014;8.886;2022-10-26T16:41:17;13.88;;;6.97;;
34144;SDS011;20422;53.014;8.886;2022-10-26T16:43:43;12.60;;;6.65;;
34144;SDS011;20422;53.014;8.886;2022-10-26T16:46:15;13.10;;;5.85;;
34144;SDS011;20422;53.014;8.886;2022-10-26T16:48:43;9.18;;;6.10;;
34144;SDS011;20422;53.014;8.886;2022-10-26T16:51:14;16.98;;;7.55;;
34144;SDS011;20422;53.014;8.886;2022-10-26T16:53:41;19.70;;;8.43;;
34144;SDS011;20422;53.014;8.886;2022-10-26T16:56:11;13.90;;;6.53;;
34144;SDS011;20422;53.014;8.886;2022-10-26T16:58:38;11.55;;;6.05;;
34144;SDS011;20422;53.014;8.886;2022-10-26T17:01:04;10.07;;;6.82;;
34144;SDS011;20422;53.014;8.886;2022-10-26T17:03:30;14.45;;;6.93;;
34144;SDS011;20422;53.014;8.886;2022-10-26T17:05:57;15.88;;;7.07;;
34144;SDS011;20422;53.014;8.886;2022-10-26T17:08:24;16.42;;;8.18;;
34144;SDS011;20422;53.014;8.886;2022-10-26T17:10:50;12.75;;;7.80;;
34144;SDS011;20422;53.014;8.886;2022-10-26T17:13:16;15.48;;;8.07;;
34144;SDS011;20422;53.014;8.886;2022-10-26T17:15:42;15.30;;;7.38;;
34144;SDS011;20422;53.014;8.886;2022-10-26T17:18:07;16.42;;;8.32;;
34144;SDS011;20422;53.014;8.886;2022-10-26T17:20:34;12.65;;;6.68;;